Tuesday, September 02, 2014
06:54 UTC
  |  Log In   |  Register Free
Airport Search:

Fort Smith Regional Airport
(KFSM)

FAA data valid effective July 24, 2014 until September 18, 2014 (unless otherwise noted).

 
 
 
 
 
 
 
 
 
 
 
 
 
 

Current Aviation Weather for Fort Smith Regional Airport (KFSM)

The most recent METAR observation for KFSM was updated at: 0553 UTC
METAR Summary (Translated METAR)
KFSM
020553Z AUTO 08004KT 10SM CLR 26/22 A2991 RMK AO2 SLP122 T02610222 10317 20261 403440239 53012
KJSV
(22.2 nm NW from KFSM)
020555Z AUTO 00000KT 10SM CLR 25/21 A2990 RMK AO2
TAF Summary (Translated TAF)
KFSM
020520Z 0206/0306 12005KT P6SM BKN250 FM021500 21006KT P6SM BKN080 FM030000 15006KT P6SM BKN250
  Airport Weather Conditions for KFSM

 Current Weather at FSM
79° F
Fair
East winds at 4.6 mph
FSM NOAA Radar

Pressure: 29.91 in
Humidity: 79%
Wind: East at 4.6 MPH (4 KT)
Dew Point: 72.0°F
Visibility: 10.00 mi


Airport Weather Forecast for KFSM

Translated METAR and TAF for KFSM
Translated METAR for KFSM (0647 UTC 02 September 2014)
found at http://aviationweather.gov/adds/metars/
 
METAR text: KFSM 020553Z AUTO 08004KT 10SM CLR 26/22 A2991 RMK AO2 SLP122 T02610222 10317 20261 403440239 53012
Conditions at: KFSM (FORT SMITH , AR, US) observed 0553 UTC 02 September 2014
Temperature: 26.1°C (79°F)
Dewpoint: 22.2°C (72°F) [RH = 79%]
Pressure (altimeter): 29.91 inches Hg (1013.0 mb)
[Sea-level pressure: 1012.2 mb]
Winds: from the E (80 degrees) at 5 MPH (4 knots; 2.1 m/s)
Visibility: 10 or more miles (16+ km)
Ceiling: at least 12,000 feet AGL
Clouds: sky clear below 12,000 feet AGL
Weather: automated observation with no human augmentation;
there may or may not be significant weather present at this time
Translated TAF for KFSM
Forecast for: KFSM (FORT SMITH , AR, US)
TAF Text: KFSM 020520Z 0206/0306 12005KT P6SM BKN250
Forecast period: 0600 to 1500 UTC 02 September 2014
Forecast type: FROM: standard forecast or significant change
Winds: from the ESE (120 degrees) at 6 MPH (5 knots; 2.6 m/s)
Visibility: 6 or more miles (10+ km)
Ceiling: 25000 feet AGL
Clouds: broken clouds at 25000 feet AGL
Weather: no significant weather forecast for this period
TAF Text: FM021500 21006KT P6SM BKN080
Forecast period: 1500 UTC 02 September 2014 to 0000 UTC 03 September 2014
Forecast type: FROM: standard forecast or significant change
Winds: from the SSW (210 degrees) at 7 MPH (6 knots; 3.1 m/s)
Visibility: 6 or more miles (10+ km)
Ceiling: 8000 feet AGL
Clouds: broken clouds at 8000 feet AGL
Weather: no significant weather forecast for this period
TAF Text: FM030000 15006KT P6SM BKN250
Forecast period: 0000 to 0600 UTC 03 September 2014
Forecast type: FROM: standard forecast or significant change
Winds: from the SSE (150 degrees) at 7 MPH (6 knots; 3.1 m/s)
Visibility: 6 or more miles (10+ km)
Ceiling: 25000 feet AGL
Clouds: broken clouds at 25000 feet AGL
Weather: no significant weather forecast for this period

Find All Airport Services Find A Hotel Find A Rental Car Find A Golf Course Find A Restaurant $100 Hamburger



FBO's on the Field
FBO Company Facility Photos Services Transportation Aviation Fuel Prices: Prices include tax
Catering Weather Repair Courtesy Rental Type 100LL JetA JetA+ MOGAS 8087
 
TAC Air - FSM

This FBO has not yet been rated
FS:Independent
Last Updated: Aug-07
Login to update fuel prices
SS:
Contact TAC Air - FSMMore FBO Information
 
Add another FBO Facility Photos Catering Weather Repair Courtesy Rental Type 100LL JetA JetA+ MOGAS 8087
Services Transportation Aviation Fuel Prices: Prices include tax


GlobalAir.com Airport Resource Center model-print
model-print
model-print
model-print